createdAt,value
2022-10-18T00:00:04.884Z,67.64
2022-10-18T00:02:31.913Z,66.09
2022-10-18T00:04:59.085Z,65.45
2022-10-18T00:07:26.123Z,65.32
2022-10-18T00:09:53.109Z,65.64
2022-10-18T00:12:20.123Z,66.06
2022-10-18T00:14:50.985Z,66.31
2022-10-18T00:17:18.432Z,66.69
2022-10-18T00:19:46.896Z,66.96
2022-10-18T00:22:13.991Z,67.78
2022-10-18T00:24:40.989Z,68.71
2022-10-18T00:27:08.038Z,68.45
2022-10-18T00:29:35.024Z,67.23
2022-10-18T00:32:01.925Z,66.94
2022-10-18T00:34:29.004Z,67.01
2022-10-18T00:36:56.225Z,67.31
2022-10-18T00:39:23.270Z,67.55
2022-10-18T00:41:50.465Z,67.89
2022-10-18T00:44:17.466Z,68.58
2022-10-18T00:46:45.932Z,68.76
2022-10-18T00:49:15.626Z,69.60
2022-10-18T00:51:44.459Z,69.37
2022-10-18T00:54:12.925Z,67.76
2022-10-18T00:56:40.190Z,67.31
2022-10-18T00:59:07.822Z,67.21
2022-10-18T01:01:36.608Z,67.59
2022-10-18T01:04:03.775Z,67.72
2022-10-18T01:06:30.672Z,68.33
2022-10-18T01:09:13.955Z,68.40
2022-10-18T01:11:59.929Z,68.96
2022-10-18T01:15:03.543Z,69.22
2022-10-18T01:18:03.159Z,67.68
2022-10-18T01:20:49.070Z,65.67
2022-10-18T01:23:21.038Z,65.37
2022-10-18T01:26:15.801Z,65.60
2022-10-18T01:29:04.476Z,66.44
2022-10-18T01:31:33.464Z,66.94
2022-10-18T01:34:03.294Z,67.36
2022-10-18T01:36:40.684Z,67.79
2022-10-18T01:39:10.093Z,68.25
2022-10-18T01:41:37.517Z,68.83
2022-10-18T01:44:05.274Z,69.35
2022-10-18T01:46:32.235Z,69.92
2022-10-18T01:48:59.264Z,68.56
2022-10-18T01:51:26.723Z,67.81
2022-10-18T01:53:53.792Z,67.69
2022-10-18T01:56:31.773Z,67.92
2022-10-18T01:59:31.380Z,68.40
2022-10-18T02:02:40.213Z,68.94
2022-10-18T02:05:13.332Z,69.49
2022-10-18T02:07:51.878Z,70.04
2022-10-18T02:10:36.473Z,69.92
2022-10-18T02:13:03.419Z,67.87
2022-10-18T02:15:33.389Z,67.05
2022-10-18T02:18:00.384Z,66.84
2022-10-18T02:20:28.642Z,67.06
2022-10-18T02:22:56.261Z,67.59
2022-10-18T02:25:28.215Z,67.98
2022-10-18T02:27:55.318Z,68.66
2022-10-18T02:30:24.529Z,68.93
2022-10-18T02:32:57.025Z,69.65
2022-10-18T02:35:27.156Z,68.11
2022-10-18T02:37:54.269Z,66.89
2022-10-18T02:40:21.315Z,66.46
2022-10-18T02:42:56.201Z,66.74
2022-10-18T02:45:23.319Z,67.35
2022-10-18T02:47:50.344Z,67.85
2022-10-18T02:50:17.598Z,68.40
2022-10-18T02:52:44.643Z,69.02
2022-10-18T02:55:11.687Z,69.61
2022-10-18T02:57:38.567Z,69.13
2022-10-18T03:00:06.449Z,67.39
2022-10-18T03:02:33.343Z,66.83
2022-10-18T03:05:00.209Z,66.64
2022-10-18T03:07:27.124Z,66.95
2022-10-18T03:09:54.078Z,67.39
2022-10-18T03:12:21.012Z,68.29
2022-10-18T03:14:47.990Z,68.65
2022-10-18T03:17:14.915Z,69.14
2022-10-18T03:19:42.367Z,69.23
2022-10-18T03:22:09.414Z,68.84
2022-10-18T03:24:36.973Z,67.17
2022-10-18T03:27:03.982Z,66.68
2022-10-18T03:29:31.072Z,66.93
2022-10-18T03:31:58.112Z,67.26
2022-10-18T03:34:25.062Z,67.71
2022-10-18T03:36:52.105Z,68.26
2022-10-18T03:39:18.979Z,68.89
2022-10-18T03:41:45.995Z,69.27
2022-10-18T03:44:13.043Z,69.71
2022-10-18T03:46:39.931Z,68.65
2022-10-18T03:49:07.042Z,67.07
2022-10-18T03:51:34.082Z,66.60
2022-10-18T03:54:00.948Z,66.71
2022-10-18T03:56:27.991Z,67.28
2022-10-18T03:58:55.125Z,67.65
2022-10-18T04:01:22.229Z,68.43
2022-10-18T04:03:49.251Z,68.93
2022-10-18T04:06:16.341Z,69.39
2022-10-18T04:08:43.247Z,69.80
2022-10-18T04:11:11.275Z,68.33
2022-10-18T04:13:38.772Z,67.36
2022-10-18T04:16:05.986Z,67.35
2022-10-18T04:18:33.149Z,67.70
2022-10-18T04:21:00.296Z,68.21
2022-10-18T04:23:27.221Z,68.73
2022-10-18T04:25:54.128Z,69.28
2022-10-18T04:28:21.126Z,69.84
2022-10-18T04:30:54.518Z,70.37
2022-10-18T04:33:21.504Z,69.76
2022-10-18T04:35:51.512Z,68.03
2022-10-18T04:38:19.005Z,67.70
2022-10-18T04:40:46.860Z,67.72
2022-10-18T04:43:13.873Z,68.24
2022-10-18T04:45:40.817Z,68.74
2022-10-18T04:48:07.943Z,69.00
2022-10-18T04:50:34.850Z,69.58
2022-10-18T04:53:13.772Z,69.88
2022-10-18T04:55:46.866Z,69.53
2022-10-18T04:58:13.765Z,68.13
2022-10-18T05:00:40.922Z,67.34
2022-10-18T05:03:08.671Z,67.48
2022-10-18T05:05:49.737Z,67.85
2022-10-18T05:08:22.509Z,68.35
2022-10-18T05:10:49.517Z,68.75
2022-10-18T05:13:16.416Z,68.97
2022-10-18T05:15:43.395Z,69.20
2022-10-18T05:18:10.294Z,69.38
2022-10-18T05:20:37.340Z,68.76
2022-10-18T05:23:04.510Z,66.92
2022-10-18T05:25:31.362Z,66.14
2022-10-18T05:28:00.925Z,66.32
2022-10-18T05:30:30.379Z,66.56
2022-10-18T05:32:57.392Z,66.98
2022-10-18T05:35:24.282Z,67.25
2022-10-18T05:37:51.285Z,67.49
2022-10-18T05:56:04.232Z,69.69
2022-10-18T05:58:31.652Z,68.28
2022-10-18T06:01:02.455Z,66.42
2022-10-18T06:03:30.251Z,66.24
2022-10-18T06:06:15.446Z,66.01
2022-10-18T06:08:43.078Z,66.50
2022-10-18T06:11:14.940Z,66.78
2022-10-18T06:13:46.285Z,66.59
2022-10-18T06:16:15.345Z,66.92
2022-10-18T06:18:42.427Z,66.65
2022-10-18T06:21:12.259Z,67.10
2022-10-18T06:23:40.413Z,66.68
2022-10-18T06:26:09.717Z,65.50
2022-10-18T06:28:38.355Z,62.99
2022-10-18T06:31:07.698Z,62.73
2022-10-18T06:33:36.530Z,62.17
2022-10-18T06:36:09.984Z,62.45
2022-10-18T06:38:37.236Z,63.08
2022-10-18T06:41:04.884Z,62.45
2022-10-18T06:43:31.978Z,62.95
2022-10-18T06:46:01.360Z,62.43
2022-10-18T06:48:28.163Z,61.87
2022-10-18T06:50:59.253Z,61.95
2022-10-18T06:53:28.349Z,61.43
2022-10-18T06:56:03.995Z,61.01
2022-10-18T06:58:31.986Z,60.56
2022-10-18T07:00:59.004Z,59.70
2022-10-18T07:03:26.700Z,58.87
2022-10-18T07:05:54.012Z,57.97
2022-10-18T07:08:20.946Z,57.55
2022-10-18T07:10:52.569Z,56.88
2022-10-18T07:13:32.052Z,55.55
2022-10-18T07:16:15.791Z,55.20
2022-10-18T07:18:49.598Z,55.16
2022-10-18T07:21:21.450Z,54.67
2022-10-18T07:23:49.403Z,54.95
2022-10-18T07:26:25.069Z,54.22
2022-10-18T07:28:55.289Z,54.31
2022-10-18T07:31:22.441Z,53.83
2022-10-18T07:33:51.345Z,54.09
2022-10-18T07:36:20.630Z,54.23
2022-10-18T07:38:49.468Z,53.63
2022-10-18T07:41:16.469Z,53.16
2022-10-18T07:43:48.015Z,52.80
2022-10-18T07:46:17.032Z,52.76
2022-10-18T07:48:43.753Z,52.47
2022-10-18T07:51:10.812Z,52.52
2022-10-18T07:53:38.156Z,52.05
2022-10-18T07:56:09.709Z,51.61
2022-10-18T07:58:37.472Z,52.01
2022-10-18T08:01:05.367Z,51.03
2022-10-18T08:03:33.921Z,51.41
2022-10-18T08:06:01.687Z,51.10
2022-10-18T08:08:30.172Z,50.07
2022-10-18T08:11:14.624Z,49.82
2022-10-18T08:13:43.214Z,49.18
2022-10-18T08:16:12.807Z,48.44
2022-10-18T08:18:39.889Z,48.19
2022-10-18T08:21:08.451Z,48.02
2022-10-18T08:23:37.935Z,47.49
2022-10-18T08:26:15.565Z,47.03
2022-10-18T08:28:49.093Z,46.34
2022-10-18T08:31:25.717Z,45.98
2022-10-18T08:33:54.915Z,46.02
2022-10-18T08:36:21.872Z,44.35
2022-10-18T08:38:49.430Z,44.31
2022-10-18T08:41:32.955Z,43.90
2022-10-18T08:44:20.278Z,43.52
2022-10-18T08:46:49.066Z,42.74
2022-10-18T08:49:59.411Z,42.51
2022-10-18T08:52:49.822Z,42.21
2022-10-18T08:55:24.759Z,42.03
2022-10-18T08:57:51.952Z,41.76
2022-10-18T09:00:24.081Z,40.76
2022-10-18T09:03:03.281Z,40.54
2022-10-18T09:05:44.150Z,40.51
2022-10-18T09:08:15.326Z,40.38
2022-10-18T09:11:04.811Z,39.81
2022-10-18T09:13:48.476Z,38.76
2022-10-18T09:16:21.624Z,38.22
2022-10-18T09:18:57.886Z,38.23
2022-10-18T09:22:03.165Z,38.30
2022-10-18T09:24:50.277Z,37.55
2022-10-18T09:27:18.938Z,37.81
2022-10-18T09:30:11.078Z,36.90
2022-10-18T09:32:47.334Z,36.90
2022-10-18T09:35:47.197Z,36.91
2022-10-18T09:38:16.204Z,36.48
2022-10-18T09:40:54.149Z,37.09
2022-10-18T09:43:23.649Z,36.63
2022-10-18T09:45:51.157Z,37.00
2022-10-18T09:48:17.953Z,37.84
2022-10-18T09:51:06.942Z,37.14
2022-10-18T09:53:41.641Z,36.64
2022-10-18T09:56:19.880Z,36.72
2022-10-18T09:58:48.267Z,36.65
2022-10-18T10:01:28.888Z,36.46
2022-10-18T10:03:56.250Z,36.45
2022-10-18T10:06:28.108Z,36.04
2022-10-18T10:08:59.470Z,36.31
2022-10-18T10:11:34.207Z,36.11
2022-10-18T10:14:14.162Z,36.13
2022-10-18T10:16:50.984Z,36.35
2022-10-18T10:19:27.380Z,36.07
2022-10-18T10:22:03.334Z,36.16
2022-10-18T10:24:50.571Z,36.59
2022-10-18T10:27:29.617Z,36.14
2022-10-18T10:30:05.760Z,35.89
2022-10-18T10:32:47.878Z,36.39
2022-10-18T10:35:35.280Z,35.80
2022-10-18T10:38:21.214Z,35.95
2022-10-18T10:40:51.236Z,35.66
2022-10-18T10:43:40.000Z,35.51
2022-10-18T10:46:18.314Z,35.82
2022-10-18T10:49:04.482Z,35.48
2022-10-18T10:51:41.117Z,36.22
2022-10-18T10:54:15.031Z,36.18
2022-10-18T10:56:54.724Z,36.12
2022-10-18T10:59:22.452Z,36.34
2022-10-18T11:01:50.818Z,36.08
2022-10-18T11:04:28.758Z,36.27
2022-10-18T11:07:08.438Z,35.86
2022-10-18T11:09:50.300Z,36.30
2022-10-18T11:12:22.573Z,36.52
2022-10-18T11:15:09.389Z,36.20
2022-10-18T11:18:10.217Z,36.30
2022-10-18T11:20:44.604Z,36.35
2022-10-18T11:23:12.968Z,36.04
2022-10-18T11:25:42.901Z,35.56
2022-10-18T11:28:19.113Z,35.86
2022-10-18T11:31:02.129Z,35.87
2022-10-18T11:34:03.491Z,36.34
2022-10-18T11:36:30.569Z,36.17
2022-10-18T11:39:07.446Z,36.23
2022-10-18T11:41:41.594Z,36.49
2022-10-18T11:44:32.186Z,37.02
2022-10-18T11:47:20.311Z,37.34
2022-10-18T11:49:59.751Z,37.69
2022-10-18T11:52:38.751Z,37.94
2022-10-18T11:55:44.960Z,37.81
2022-10-18T11:58:18.054Z,37.59
2022-10-18T12:00:48.894Z,37.81
2022-10-18T12:03:23.820Z,37.47
2022-10-18T12:05:51.619Z,37.75
2022-10-18T12:08:32.900Z,37.90
2022-10-18T12:11:06.385Z,38.57
2022-10-18T12:13:51.936Z,38.49
2022-10-18T12:16:33.536Z,38.53
2022-10-18T12:19:12.781Z,38.68
2022-10-18T12:21:39.657Z,39.14
2022-10-18T12:24:18.217Z,38.84
2022-10-18T12:26:48.034Z,39.41
2022-10-18T12:29:39.692Z,39.41
2022-10-18T12:32:11.508Z,39.17
2022-10-18T12:34:44.171Z,39.89
2022-10-18T12:37:29.393Z,39.23
2022-10-18T12:40:18.466Z,38.92
2022-10-18T12:42:47.500Z,39.44
2022-10-18T12:45:24.462Z,39.40
2022-10-18T12:47:51.203Z,39.85
2022-10-18T12:50:27.281Z,39.92
2022-10-18T12:53:23.704Z,39.98
2022-10-18T12:55:51.130Z,40.12
2022-10-18T12:58:29.586Z,39.65
2022-10-18T13:01:04.482Z,40.06
2022-10-18T13:03:54.857Z,40.08
2022-10-18T13:06:24.418Z,40.29
2022-10-18T13:09:15.477Z,40.30
2022-10-18T13:11:42.469Z,40.54
2022-10-18T13:14:24.719Z,40.67
2022-10-18T13:17:00.005Z,40.72
2022-10-18T13:20:24.927Z,41.07
2022-10-18T13:23:21.031Z,41.13
2022-10-18T13:26:01.355Z,41.45
2022-10-18T13:28:52.610Z,41.44
2022-10-18T13:31:23.668Z,41.41
2022-10-18T13:33:50.628Z,41.42
2022-10-18T13:36:22.732Z,41.58
2022-10-18T13:38:55.001Z,41.57
2022-10-18T13:41:27.546Z,42.06
2022-10-18T13:44:02.859Z,42.44
2022-10-18T13:46:31.973Z,42.23
2022-10-18T13:49:05.081Z,42.57
2022-10-18T13:51:56.786Z,42.74
2022-10-18T13:54:38.579Z,42.86
2022-10-18T13:57:39.361Z,43.07
2022-10-18T14:00:28.810Z,43.48
2022-10-18T14:03:31.724Z,43.88
2022-10-18T14:06:08.280Z,44.52
2022-10-18T14:08:41.692Z,44.76
2022-10-18T14:11:45.930Z,44.98
2022-10-18T14:14:36.109Z,45.16
2022-10-18T14:17:34.493Z,45.28
2022-10-18T14:20:23.787Z,45.27
2022-10-18T14:22:55.731Z,45.76
2022-10-18T14:25:27.096Z,45.77
2022-10-18T14:28:06.852Z,46.21
2022-10-18T14:30:34.662Z,46.41
2022-10-18T14:33:01.461Z,46.47
2022-10-18T14:35:33.206Z,46.73
2022-10-18T14:38:00.535Z,46.91
2022-10-18T14:40:38.450Z,46.99
2022-10-18T14:43:08.558Z,46.97
2022-10-18T14:45:35.420Z,47.33
2022-10-18T14:48:16.886Z,47.58
2022-10-18T14:50:45.324Z,47.67
2022-10-18T15:17:59.860Z,51.86
2022-10-18T15:20:31.638Z,51.87
2022-10-18T15:23:20.849Z,52.19
2022-10-18T15:25:47.953Z,52.95
2022-10-18T15:28:31.234Z,53.90
2022-10-18T15:30:58.434Z,54.90
2022-10-18T15:33:26.821Z,55.05
2022-10-18T15:35:53.957Z,55.37
2022-10-18T15:38:31.304Z,55.06
2022-10-18T15:40:58.113Z,55.50
2022-10-18T15:43:25.348Z,55.84
2022-10-18T15:46:05.037Z,56.46
2022-10-18T15:48:38.688Z,57.30
2022-10-18T15:51:26.217Z,57.24
2022-10-18T15:53:53.678Z,57.11
2022-10-18T15:56:28.571Z,57.96
2022-10-18T15:58:58.891Z,58.43
2022-10-18T16:01:37.380Z,58.79
2022-10-18T16:04:08.568Z,58.62
2022-10-18T16:06:38.117Z,58.53
2022-10-18T16:09:06.169Z,58.38
2022-10-18T16:11:36.186Z,60.04
2022-10-18T16:14:05.394Z,60.44
2022-10-18T16:16:32.434Z,60.89
2022-10-18T16:18:59.917Z,61.34
2022-10-18T16:21:26.929Z,62.41
2022-10-18T16:23:54.197Z,62.88
2022-10-18T16:26:21.867Z,62.80
2022-10-18T16:28:50.693Z,62.89
2022-10-18T16:31:22.294Z,62.35
2022-10-18T16:41:26.764Z,66.19
2022-10-18T16:43:53.809Z,65.64
2022-10-18T16:46:27.618Z,64.45
2022-10-18T16:48:55.302Z,64.12
2022-10-18T16:51:22.634Z,64.43
2022-10-18T16:53:49.784Z,64.45
2022-10-18T16:56:18.473Z,64.32
2022-10-18T16:58:45.725Z,64.27
2022-10-18T17:01:14.086Z,64.08
2022-10-18T17:03:41.359Z,64.10
2022-10-18T17:06:31.337Z,63.94
2022-10-18T17:08:58.381Z,64.08
2022-10-18T17:11:26.907Z,64.23
2022-10-18T17:13:54.331Z,64.36
2022-10-18T17:19:02.345Z,65.03
2022-10-18T17:21:29.409Z,64.09
2022-10-18T17:24:06.015Z,62.48
2022-10-18T17:26:33.120Z,62.85
2022-10-18T17:29:05.037Z,62.85
2022-10-18T17:31:32.655Z,63.08
2022-10-18T17:34:02.136Z,63.40
2022-10-18T17:36:32.802Z,63.67
2022-10-18T17:39:00.226Z,63.82
2022-10-18T17:41:27.280Z,64.21
2022-10-18T17:43:54.240Z,64.76
2022-10-18T17:46:21.155Z,65.00
2022-10-18T17:48:48.139Z,65.09
2022-10-18T17:51:16.492Z,65.05
2022-10-18T17:53:43.538Z,65.18
2022-10-18T17:56:10.693Z,64.12
2022-10-18T17:58:37.950Z,63.23
2022-10-18T18:01:19.122Z,62.74
2022-10-18T18:03:47.926Z,62.84
2022-10-18T18:06:18.875Z,63.22
2022-10-18T18:08:46.126Z,63.85
2022-10-18T18:11:13.467Z,64.25
2022-10-18T18:13:40.598Z,64.14
2022-10-18T18:16:19.012Z,64.48
2022-10-18T18:18:46.526Z,64.07
2022-10-18T18:21:13.552Z,64.22
2022-10-18T18:23:40.870Z,64.72
2022-10-18T18:26:07.928Z,64.73
2022-10-18T18:28:36.377Z,65.16
2022-10-18T18:31:07.588Z,65.27
2022-10-18T18:33:35.620Z,63.48
2022-10-18T18:36:05.119Z,62.85
2022-10-18T18:38:33.609Z,62.88
2022-10-18T18:41:03.931Z,63.29
2022-10-18T18:43:31.071Z,64.03
2022-10-18T18:45:58.345Z,64.44
2022-10-18T18:48:27.332Z,64.32
2022-10-18T18:50:54.718Z,64.84
2022-10-18T18:53:23.357Z,66.00
2022-10-18T18:55:53.066Z,66.45
2022-10-18T18:58:20.222Z,67.03
2022-10-18T19:00:47.335Z,67.21
2022-10-18T19:03:14.521Z,66.29
2022-10-18T19:05:41.678Z,64.75
2022-10-18T19:08:08.713Z,64.27
2022-10-18T19:10:35.690Z,64.44
2022-10-18T19:13:02.708Z,65.07
2022-10-18T19:15:29.703Z,65.43
2022-10-18T19:17:56.734Z,65.86
2022-10-18T19:20:23.649Z,66.37
2022-10-18T19:22:50.540Z,66.61
2022-10-18T19:25:17.599Z,67.00
2022-10-18T19:27:44.646Z,67.18
2022-10-18T19:30:11.604Z,67.13
2022-10-18T19:32:38.413Z,66.52
2022-10-18T19:35:05.444Z,64.68
2022-10-18T19:37:32.810Z,64.01
2022-10-18T19:40:00.008Z,64.03
2022-10-18T19:42:30.310Z,64.35
2022-10-18T19:44:58.258Z,64.46
2022-10-18T19:47:25.212Z,64.85
2022-10-18T19:49:53.843Z,65.13
2022-10-18T19:52:20.776Z,65.56
2022-10-18T19:54:48.892Z,65.75
2022-10-18T19:57:15.807Z,65.88
2022-10-18T19:59:42.839Z,66.06
2022-10-18T20:02:13.370Z,65.99
2022-10-18T20:04:40.194Z,65.96
2022-10-18T20:07:07.141Z,66.26
2022-10-18T20:09:34.144Z,66.40
2022-10-18T20:12:01.218Z,65.36
2022-10-18T20:14:28.225Z,63.98
2022-10-18T20:16:55.158Z,63.30
2022-10-18T20:19:22.074Z,63.38
2022-10-18T20:21:49.051Z,63.48
2022-10-18T20:24:15.949Z,63.71
2022-10-18T20:26:43.770Z,64.23
2022-10-18T20:29:10.891Z,64.49
2022-10-18T20:31:39.219Z,64.76
2022-10-18T20:34:08.290Z,65.24
2022-10-18T20:36:35.419Z,65.70
2022-10-18T20:39:02.491Z,65.84
2022-10-18T20:41:38.106Z,65.85
2022-10-18T20:44:07.135Z,66.10
2022-10-18T20:46:35.460Z,66.43
2022-10-18T20:49:02.677Z,66.15
2022-10-18T20:51:29.573Z,66.43
2022-10-18T20:53:56.500Z,65.03
2022-10-18T20:56:25.296Z,64.11
2022-10-18T20:58:53.416Z,63.76
2022-10-18T21:01:22.219Z,63.82
2022-10-18T21:03:49.924Z,64.19
2022-10-18T21:06:18.788Z,64.45
2022-10-18T21:08:45.919Z,64.77
2022-10-18T21:11:13.161Z,65.12
2022-10-18T21:13:43.040Z,65.20
2022-10-18T21:16:10.125Z,65.67
2022-10-18T21:18:37.325Z,65.77
2022-10-18T21:21:14.757Z,66.13
2022-10-18T21:23:42.561Z,66.21
2022-10-18T21:26:16.785Z,66.33
2022-10-18T21:28:43.995Z,66.41
2022-10-18T21:31:18.947Z,66.86
2022-10-18T21:33:46.024Z,65.55
2022-10-18T21:36:13.396Z,64.49
2022-10-18T21:38:40.410Z,64.11
2022-10-18T21:41:09.471Z,64.26
2022-10-18T21:43:41.252Z,64.83
2022-10-18T21:46:08.414Z,65.22
2022-10-18T21:48:35.298Z,65.38
2022-10-18T21:51:06.316Z,66.42
2022-10-18T21:53:33.459Z,66.85
2022-10-18T21:56:07.002Z,67.26
2022-10-18T21:58:34.519Z,67.35
2022-10-18T22:01:01.614Z,67.98
2022-10-18T22:03:28.464Z,68.20
2022-10-18T22:06:01.400Z,67.06
2022-10-18T22:08:29.857Z,65.83
2022-10-18T22:10:57.251Z,65.40
2022-10-18T22:13:24.334Z,65.65
2022-10-18T22:15:51.264Z,66.02
2022-10-18T22:18:18.319Z,66.58
2022-10-18T22:20:58.910Z,66.81
2022-10-18T22:23:34.367Z,67.20
2022-10-18T22:26:05.655Z,67.40
2022-10-18T22:28:32.781Z,67.98
2022-10-18T22:30:59.730Z,68.21
2022-10-18T22:33:26.760Z,69.05
2022-10-18T22:35:53.796Z,68.48
2022-10-18T22:38:20.822Z,66.84
2022-10-18T22:40:47.912Z,66.24
2022-10-18T22:43:14.843Z,66.59
2022-10-18T22:45:41.898Z,67.13
2022-10-18T22:48:08.751Z,67.68
2022-10-18T22:50:35.590Z,67.69
2022-10-18T22:53:02.401Z,68.71
2022-10-18T22:55:29.259Z,69.41
2022-10-18T22:57:56.442Z,69.51
2022-10-18T23:00:23.431Z,70.09
2022-10-18T23:02:50.471Z,69.63
2022-10-18T23:05:17.412Z,68.34
2022-10-18T23:07:48.195Z,67.99
2022-10-18T23:10:15.418Z,68.18
2022-10-18T23:12:42.462Z,68.59
2022-10-18T23:15:09.783Z,69.01
2022-10-18T23:17:37.133Z,69.59
2022-10-18T23:20:05.619Z,69.84
2022-10-18T23:22:32.826Z,70.03
2022-10-18T23:24:59.896Z,70.68
2022-10-18T23:27:28.491Z,70.46
2022-10-18T23:29:55.304Z,69.00
2022-10-18T23:32:22.208Z,68.88
2022-10-18T23:34:49.192Z,69.22
2022-10-18T23:37:16.103Z,69.36
2022-10-18T23:39:42.969Z,69.57
2022-10-18T23:42:09.858Z,70.36
2022-10-18T23:44:36.723Z,71.01
2022-10-18T23:47:03.718Z,71.30
2022-10-18T23:49:30.688Z,70.79
2022-10-18T23:51:57.511Z,69.31
2022-10-18T23:54:24.444Z,68.77
2022-10-18T23:56:51.370Z,68.63
2022-10-18T23:59:18.315Z,68.89
